createdAt,value
2018-03-24T00:01:08.005Z,22.20
2018-03-24T00:03:34.261Z,23.47
2018-03-24T00:06:00.530Z,22.00
2018-03-24T00:08:26.898Z,21.53
2018-03-24T00:10:52.910Z,21.67
2018-03-24T00:13:18.809Z,22.20
2018-03-24T00:15:47.389Z,20.97
2018-03-24T00:18:13.248Z,20.67
2018-03-24T00:20:39.268Z,20.00
2018-03-24T00:23:05.142Z,21.60
2018-03-24T00:25:31.001Z,19.80
2018-03-24T00:27:56.920Z,18.17
2018-03-24T00:30:22.768Z,19.50
2018-03-24T00:32:48.617Z,19.33
2018-03-24T00:35:14.526Z,20.60
2018-03-24T00:37:40.413Z,18.03
2018-03-24T00:40:06.276Z,18.90
2018-03-24T00:42:32.172Z,19.57
2018-03-24T00:44:58.020Z,18.30
2018-03-24T00:47:23.872Z,19.03
2018-03-24T00:49:49.768Z,18.03
2018-03-24T00:52:15.626Z,17.87
2018-03-24T00:54:41.468Z,17.47
2018-03-24T00:57:07.377Z,18.97
2018-03-24T00:59:33.227Z,16.17
2018-03-24T01:01:59.081Z,18.30
2018-03-24T01:04:25.305Z,17.63
2018-03-24T01:06:51.193Z,17.67
2018-03-24T01:09:17.146Z,19.00
2018-03-24T01:11:43.032Z,18.37
2018-03-24T01:14:08.889Z,18.93
2018-03-24T01:16:34.750Z,17.63
2018-03-24T01:19:00.733Z,18.07
2018-03-24T01:21:26.688Z,18.20
2018-03-24T01:23:52.527Z,18.30
2018-03-24T01:26:18.422Z,18.47
2018-03-24T01:28:44.277Z,17.67
2018-03-24T01:31:10.206Z,16.97
2018-03-24T01:33:36.404Z,17.90
2018-03-24T01:36:02.272Z,16.37
2018-03-24T01:38:28.221Z,17.70
2018-03-24T01:40:54.126Z,17.23
2018-03-24T01:43:20.048Z,18.20
2018-03-24T01:45:45.892Z,19.10
2018-03-24T01:48:11.800Z,16.80
2018-03-24T01:50:37.658Z,17.43
2018-03-24T01:53:03.516Z,16.17
2018-03-24T01:55:29.504Z,16.50
2018-03-24T01:57:55.356Z,17.20
2018-03-24T02:00:21.223Z,16.30
2018-03-24T02:02:47.910Z,16.03
2018-03-24T02:05:13.794Z,16.33
2018-03-24T02:07:39.721Z,16.20
2018-03-24T02:10:05.626Z,16.30
2018-03-24T02:12:31.483Z,16.47
2018-03-24T02:14:57.329Z,17.87
2018-03-24T02:17:23.306Z,15.93
2018-03-24T02:19:49.260Z,16.13
2018-03-24T02:22:15.104Z,16.77
2018-03-24T02:24:42.480Z,16.50
2018-03-24T02:27:08.544Z,15.17
2018-03-24T02:29:34.393Z,18.10
2018-03-24T02:32:00.429Z,17.23
2018-03-24T02:34:26.302Z,17.30
2018-03-24T02:36:52.168Z,17.83
2018-03-24T02:39:18.225Z,16.53
2018-03-24T02:41:44.086Z,16.30
2018-03-24T02:44:10.035Z,17.57
2018-03-24T02:46:36.026Z,18.40
2018-03-24T02:49:01.889Z,17.13
2018-03-24T02:51:27.741Z,16.47
2018-03-24T02:53:53.625Z,17.43
2018-03-24T02:56:19.536Z,16.70
2018-03-24T02:58:45.391Z,16.73
2018-03-24T03:01:11.322Z,17.30
2018-03-24T03:03:37.190Z,18.23
2018-03-24T03:06:03.084Z,17.60
2018-03-24T03:08:29.082Z,16.07
2018-03-24T03:10:54.940Z,17.70
2018-03-24T03:13:20.807Z,18.47
2018-03-24T03:15:46.726Z,18.13
2018-03-24T03:18:12.585Z,16.13
2018-03-24T03:20:38.537Z,18.27
2018-03-24T03:23:04.430Z,17.50
2018-03-24T03:25:30.280Z,15.87
2018-03-24T03:27:56.190Z,17.03
2018-03-24T03:30:28.283Z,16.70
2018-03-24T03:32:54.270Z,16.80
2018-03-24T03:35:20.138Z,18.37
2018-03-24T03:37:46.035Z,17.37
2018-03-24T03:40:11.901Z,17.20
2018-03-24T03:42:37.748Z,18.30
2018-03-24T03:45:03.781Z,17.87
2018-03-24T03:47:29.653Z,16.07
2018-03-24T03:49:55.509Z,17.30
2018-03-24T03:52:21.387Z,16.13
2018-03-24T03:54:47.244Z,16.67
2018-03-24T03:57:13.180Z,16.60
2018-03-24T03:59:39.072Z,17.63
2018-03-24T04:02:04.928Z,17.90
2018-03-24T04:04:30.845Z,16.57
2018-03-24T04:06:56.732Z,17.53
2018-03-24T04:09:22.689Z,15.20
2018-03-24T04:11:48.543Z,17.07
2018-03-24T04:14:14.814Z,17.57
2018-03-24T04:16:40.732Z,16.87
2018-03-24T04:19:06.589Z,18.40
2018-03-24T04:21:32.579Z,16.70
2018-03-24T04:23:58.441Z,17.37
2018-03-24T04:26:24.301Z,18.03
2018-03-24T04:28:50.200Z,18.27
2018-03-24T04:31:16.120Z,19.50
2018-03-24T04:33:42.068Z,17.80
2018-03-24T04:36:07.958Z,17.73
2018-03-24T04:38:33.816Z,16.97
2018-03-24T04:40:59.677Z,17.63
2018-03-24T04:43:25.920Z,17.67
2018-03-24T04:45:51.862Z,17.90
2018-03-24T04:48:17.717Z,17.77
2018-03-24T04:50:43.602Z,19.13
2018-03-24T04:53:09.471Z,18.90
2018-03-24T04:55:35.321Z,18.47
2018-03-24T04:58:01.310Z,17.57
2018-03-24T05:00:27.903Z,17.50
2018-03-24T05:02:53.770Z,18.03
2018-03-24T05:05:19.697Z,17.73
2018-03-24T05:07:45.603Z,17.30
2018-03-24T05:10:11.552Z,18.13
2018-03-24T05:12:37.543Z,16.73
2018-03-24T05:15:03.418Z,18.07
2018-03-24T05:17:29.273Z,17.80
2018-03-24T05:19:55.213Z,17.80
2018-03-24T05:22:21.157Z,18.00
2018-03-24T05:24:47.057Z,16.90
2018-03-24T05:27:13.328Z,16.67
2018-03-24T05:29:39.198Z,18.30
2018-03-24T05:32:05.114Z,18.13
2018-03-24T05:34:31.154Z,16.43
2018-03-24T05:36:57.012Z,18.37
2018-03-24T05:39:22.866Z,18.73
2018-03-24T05:41:48.770Z,19.13
2018-03-24T05:44:14.685Z,17.97
2018-03-24T05:46:40.620Z,16.13
2018-03-24T05:49:06.504Z,17.73
2018-03-24T05:51:32.360Z,17.27
2018-03-24T05:53:58.208Z,17.50
2018-03-24T05:56:24.162Z,19.37
2018-03-24T05:58:50.097Z,19.37
2018-03-24T06:01:15.953Z,15.80
2018-03-24T06:03:41.857Z,17.87
2018-03-24T06:06:07.805Z,17.20
2018-03-24T06:08:33.745Z,16.77
2018-03-24T06:10:59.716Z,16.93
2018-03-24T06:13:25.631Z,18.57
2018-03-24T06:15:51.482Z,17.00
2018-03-24T06:18:17.378Z,16.33
2018-03-24T06:20:43.241Z,18.40
2018-03-24T06:23:09.137Z,19.27
2018-03-24T06:25:35.049Z,19.20
2018-03-24T06:28:00.921Z,17.47
2018-03-24T06:30:26.790Z,16.83
2018-03-24T06:32:52.705Z,15.47
2018-03-24T06:35:18.578Z,16.90
2018-03-24T06:37:44.427Z,16.90
2018-03-24T06:40:10.421Z,18.37
2018-03-24T06:42:36.286Z,17.37
2018-03-24T06:45:02.152Z,17.20
2018-03-24T06:47:28.058Z,16.60
2018-03-24T06:49:53.968Z,17.20
2018-03-24T06:52:19.830Z,17.10
2018-03-24T06:54:45.715Z,17.73
2018-03-24T06:57:11.564Z,17.63
2018-03-24T06:59:37.418Z,18.97
2018-03-24T07:02:03.392Z,17.83
2018-03-24T07:04:29.247Z,17.77
2018-03-24T07:06:55.125Z,17.37
2018-03-24T07:09:21.021Z,18.27
2018-03-24T07:11:46.933Z,19.53
2018-03-24T07:14:12.811Z,18.37
2018-03-24T07:16:38.721Z,18.37
2018-03-24T07:19:04.589Z,20.53
2018-03-24T07:21:30.440Z,19.47
2018-03-24T07:23:56.346Z,18.43
2018-03-24T07:26:22.201Z,17.90
2018-03-24T07:28:48.049Z,18.53
2018-03-24T07:31:13.965Z,18.23
2018-03-24T07:33:39.830Z,18.07
2018-03-24T07:36:05.703Z,16.97
2018-03-24T07:38:31.608Z,16.70
2018-03-24T07:40:57.465Z,17.53
2018-03-24T07:43:23.309Z,17.70
2018-03-24T07:45:49.197Z,17.63
2018-03-24T07:48:15.161Z,16.50
2018-03-24T07:50:41.044Z,16.77
2018-03-24T07:53:06.947Z,16.87
2018-03-24T07:55:32.810Z,17.17
2018-03-24T07:57:58.660Z,17.20
2018-03-24T08:00:24.560Z,16.67
2018-03-24T08:02:50.420Z,15.17
2018-03-24T08:05:16.277Z,15.20
2018-03-24T08:07:42.174Z,16.57
2018-03-24T08:10:08.090Z,16.03
2018-03-24T08:12:33.996Z,16.40
2018-03-24T08:14:59.912Z,15.77
2018-03-24T08:17:25.808Z,15.20
2018-03-24T08:19:51.742Z,16.10
2018-03-24T08:22:17.735Z,15.20
2018-03-24T08:24:43.602Z,16.80
2018-03-24T08:27:09.577Z,14.47
2018-03-24T08:29:35.573Z,15.93
2018-03-24T08:32:01.605Z,14.67
2018-03-24T08:34:27.504Z,15.67
2018-03-24T08:36:53.441Z,13.77
2018-03-24T08:39:19.317Z,14.70
2018-03-24T08:41:45.160Z,15.23
2018-03-24T08:44:11.045Z,14.27
2018-03-24T08:46:36.894Z,15.57
2018-03-24T08:49:02.750Z,15.93
2018-03-24T08:51:28.650Z,15.57
2018-03-24T08:53:54.609Z,16.17
2018-03-24T08:56:20.477Z,16.43
2018-03-24T08:58:46.385Z,16.23
2018-03-24T09:01:12.236Z,17.10
2018-03-24T09:03:38.096Z,14.93
2018-03-24T09:06:03.989Z,15.47
2018-03-24T09:08:29.840Z,16.57
2018-03-24T09:10:55.689Z,15.20
2018-03-24T09:13:21.717Z,15.40
2018-03-24T09:15:47.582Z,15.80
2018-03-24T09:18:13.461Z,15.03
2018-03-24T09:20:39.373Z,15.00
2018-03-24T09:23:05.228Z,15.30
2018-03-24T09:25:31.098Z,16.40
2018-03-24T09:27:57.039Z,14.27
2018-03-24T09:30:22.942Z,15.90
2018-03-24T09:32:48.810Z,16.77
2018-03-24T09:35:14.698Z,17.70
2018-03-24T09:37:40.557Z,14.90
2018-03-24T09:40:06.417Z,14.90
2018-03-24T09:42:32.334Z,15.33
2018-03-24T09:44:58.185Z,16.23
2018-03-24T09:47:24.077Z,16.23
2018-03-24T09:49:49.960Z,16.97
2018-03-24T09:52:15.843Z,15.47
2018-03-24T09:54:41.740Z,15.83
2018-03-24T09:57:07.629Z,17.03
2018-03-24T09:59:33.481Z,15.30
2018-03-24T10:01:59.326Z,16.67
2018-03-24T10:04:25.218Z,16.33
2018-03-24T10:06:51.078Z,15.57
2018-03-24T10:09:16.942Z,15.10
2018-03-24T10:11:42.854Z,16.40
2018-03-24T10:14:09.629Z,16.20
2018-03-24T10:16:35.481Z,16.80
2018-03-24T10:19:01.542Z,15.93
2018-03-24T10:24:32.426Z,14.87
2018-03-24T10:26:58.286Z,15.50
2018-03-24T10:29:24.132Z,17.03
2018-03-24T10:31:50.021Z,15.17
2018-03-24T10:34:15.874Z,16.80
2018-03-24T10:36:41.753Z,16.33
2018-03-24T10:39:07.633Z,14.67
2018-03-24T10:41:33.493Z,15.67
2018-03-24T10:43:59.353Z,14.73
2018-03-24T10:46:25.252Z,15.50
2018-03-24T10:48:51.121Z,13.27
2018-03-24T10:51:17.006Z,12.23
2018-03-24T10:53:42.934Z,13.80
2018-03-24T10:56:08.816Z,13.03
2018-03-24T10:58:34.781Z,14.10
2018-03-24T11:01:02.765Z,13.20
2018-03-24T11:03:28.616Z,14.43
2018-03-24T11:05:54.497Z,13.83
2018-03-24T11:08:20.415Z,15.50
2018-03-24T11:10:46.269Z,15.03
2018-03-24T11:13:12.111Z,14.07
2018-03-24T11:15:38.053Z,14.53
2018-03-24T11:18:03.917Z,15.97
2018-03-24T11:20:29.766Z,14.80
2018-03-24T11:22:55.658Z,15.03
2018-03-24T11:25:21.504Z,15.17
2018-03-24T11:27:47.405Z,15.10
2018-03-24T11:30:13.304Z,15.40
2018-03-24T11:32:39.160Z,14.63
2018-03-24T11:35:05.028Z,13.83
2018-03-24T11:37:30.920Z,13.00
2018-03-24T11:39:56.764Z,14.73
2018-03-24T11:42:22.698Z,16.00
2018-03-24T11:44:48.597Z,15.23
2018-03-24T11:47:14.461Z,15.67
2018-03-24T11:49:40.305Z,14.17
2018-03-24T11:52:06.202Z,15.27
2018-03-24T11:54:42.268Z,14.77
2018-03-24T11:57:08.174Z,14.43
2018-03-24T11:59:34.024Z,14.87
2018-03-24T12:01:59.876Z,14.47
2018-03-24T12:04:25.766Z,15.20
2018-03-24T12:06:51.619Z,14.57
2018-03-24T12:09:17.456Z,14.03
2018-03-24T12:11:43.357Z,14.73
2018-03-24T12:14:09.213Z,15.30
2018-03-24T12:16:35.110Z,14.87
2018-03-24T12:19:01.003Z,15.03
2018-03-24T12:21:26.875Z,14.73
2018-03-24T12:23:52.740Z,15.17
2018-03-24T12:26:18.628Z,13.87
2018-03-24T12:28:44.468Z,12.90
2018-03-24T12:31:10.372Z,13.93
2018-03-24T12:33:36.276Z,15.30
2018-03-24T12:36:02.139Z,13.83
2018-03-24T12:38:28.006Z,15.00
2018-03-24T12:40:53.905Z,14.83
2018-03-24T12:43:19.753Z,16.40
2018-03-24T12:45:45.593Z,13.87
2018-03-24T12:48:11.520Z,16.60
2018-03-24T12:50:37.365Z,20.77
2018-03-24T12:53:03.205Z,18.80
2018-03-24T12:55:29.106Z,20.53
2018-03-24T12:57:54.959Z,18.97
2018-03-24T13:00:20.805Z,19.47
2018-03-24T13:02:46.689Z,19.17
2018-03-24T13:05:12.541Z,19.77
2018-03-24T13:07:38.388Z,20.17
2018-03-24T13:10:04.285Z,20.00
2018-03-24T13:12:30.202Z,18.17
2018-03-24T13:14:56.061Z,17.07
2018-03-24T13:17:22.017Z,22.37
2018-03-24T13:19:47.885Z,20.80
2018-03-24T13:22:13.746Z,20.37
2018-03-24T13:24:39.643Z,18.90
2018-03-24T13:27:05.500Z,22.63
2018-03-24T13:29:31.349Z,22.90
2018-03-24T13:31:57.233Z,23.53
2018-03-24T13:34:23.089Z,24.80
2018-03-24T13:36:48.938Z,24.17
2018-03-24T13:39:14.823Z,25.93
2018-03-24T13:41:40.686Z,24.13
2018-03-24T13:44:06.549Z,24.77
2018-03-24T13:46:32.440Z,26.87
2018-03-24T13:48:58.306Z,25.67
2018-03-24T13:51:24.167Z,25.03
2018-03-24T13:53:50.055Z,25.17
2018-03-24T13:56:15.964Z,26.37
2018-03-24T13:58:41.836Z,29.30
2018-03-24T14:01:07.746Z,28.23
2018-03-24T14:03:33.623Z,27.03
2018-03-24T14:05:59.486Z,27.20
2018-03-24T14:08:25.414Z,24.37
2018-03-24T14:10:51.267Z,23.93
2018-03-24T14:13:17.117Z,23.13
2018-03-24T14:15:43.012Z,23.13
2018-03-24T14:18:08.939Z,24.87
2018-03-24T14:20:34.784Z,22.93
2018-03-24T14:23:00.682Z,23.10
2018-03-24T14:25:26.537Z,22.77
2018-03-24T14:27:52.394Z,23.13
2018-03-24T14:30:18.283Z,25.60
2018-03-24T14:32:44.137Z,24.47
2018-03-24T14:35:09.990Z,25.40
2018-03-24T14:37:35.893Z,23.80
2018-03-24T14:40:01.794Z,22.70
2018-03-24T14:42:27.656Z,25.50
2018-03-24T14:44:53.549Z,24.00
2018-03-24T14:47:19.397Z,25.03
2018-03-24T14:49:45.266Z,26.23
2018-03-24T14:52:11.160Z,25.13
2018-03-24T14:54:37.003Z,25.47
2018-03-24T14:57:02.865Z,24.87
2018-03-24T14:59:28.774Z,23.13
2018-03-24T15:01:54.637Z,23.43
2018-03-24T15:04:20.493Z,23.27
2018-03-24T15:06:46.408Z,22.70
2018-03-24T15:09:12.256Z,23.87
2018-03-24T15:11:38.160Z,22.23
2018-03-24T15:14:04.101Z,21.80
2018-03-24T15:16:29.961Z,21.30
2018-03-24T15:18:55.965Z,21.33
2018-03-24T15:21:21.894Z,23.20
2018-03-24T15:23:47.764Z,22.33
2018-03-24T15:26:13.625Z,22.97
2018-03-24T15:28:51.970Z,21.43
2018-03-24T15:31:30.294Z,20.50
2018-03-24T15:34:08.560Z,22.07
2018-03-24T15:36:40.495Z,21.47
2018-03-24T15:39:06.374Z,21.13
2018-03-24T15:41:32.269Z,18.90
2018-03-24T15:43:58.222Z,21.87
2018-03-24T15:46:24.101Z,20.83
2018-03-24T15:48:50.010Z,20.63
2018-03-24T15:51:15.890Z,20.80
2018-03-24T15:53:41.781Z,20.30
2018-03-24T15:56:07.730Z,18.70
2018-03-24T15:58:33.577Z,20.23
2018-03-24T16:00:59.527Z,22.23
2018-03-24T16:03:25.429Z,20.13
2018-03-24T16:05:51.319Z,20.57
2018-03-24T16:08:17.235Z,20.20
2018-03-24T16:10:43.177Z,20.53
2018-03-24T16:13:09.059Z,19.57
2018-03-24T16:15:34.949Z,19.90
2018-03-24T16:18:00.871Z,20.43
2018-03-24T16:20:26.882Z,19.87
2018-03-24T16:22:52.747Z,20.57
2018-03-24T16:25:18.669Z,20.13
2018-03-24T16:27:44.524Z,19.30
2018-03-24T16:30:10.384Z,21.70
2018-03-24T16:32:36.302Z,19.80
2018-03-24T16:35:02.199Z,20.43
2018-03-24T16:37:28.122Z,20.33
2018-03-24T16:39:54.095Z,19.73
2018-03-24T16:42:19.998Z,19.30
2018-03-24T16:44:45.875Z,18.70
2018-03-24T16:47:11.794Z,19.63
2018-03-24T16:49:37.861Z,19.43
2018-03-24T16:52:03.770Z,18.73
2018-03-24T16:54:29.695Z,17.50
2018-03-24T16:56:55.573Z,16.43
2018-03-24T16:59:21.508Z,18.93
2018-03-24T17:01:47.406Z,19.50
2018-03-24T17:04:13.253Z,17.87
2018-03-24T17:06:39.106Z,19.77
2018-03-24T17:09:05.009Z,17.93
2018-03-24T17:11:30.868Z,19.67
2018-03-24T17:13:56.733Z,18.60
2018-03-24T17:16:22.625Z,18.33
2018-03-24T17:18:48.521Z,18.63
2018-03-24T17:21:14.485Z,19.57
2018-03-24T17:23:40.430Z,21.33
2018-03-24T17:26:06.378Z,21.87
2018-03-24T17:28:32.250Z,19.57
2018-03-24T17:30:58.136Z,20.50
2018-03-24T17:33:24.010Z,21.50
2018-03-24T17:35:49.875Z,20.67
2018-03-24T17:38:15.797Z,20.13
2018-03-24T17:40:41.652Z,21.87
2018-03-24T17:43:07.512Z,21.40
2018-03-24T17:45:33.429Z,20.67
2018-03-24T17:47:59.280Z,19.73
2018-03-24T17:50:25.158Z,20.90
2018-03-24T17:52:51.098Z,22.33
2018-03-24T17:55:16.961Z,23.20
2018-03-24T17:57:42.825Z,20.73
2018-03-24T18:00:08.775Z,20.53
2018-03-24T18:02:34.624Z,21.43
2018-03-24T18:05:00.468Z,23.10
2018-03-24T18:07:26.358Z,23.33
2018-03-24T18:09:52.226Z,25.77
2018-03-24T18:12:18.085Z,24.23
2018-03-24T18:14:44.003Z,25.77
2018-03-24T18:17:09.867Z,30.20
2018-03-24T18:19:35.792Z,27.10
2018-03-24T18:22:01.781Z,29.07
2018-03-24T18:24:27.643Z,28.03
2018-03-24T18:26:53.500Z,28.43
2018-03-24T18:29:19.409Z,31.40
2018-03-24T18:31:45.279Z,28.17
2018-03-24T18:34:11.228Z,29.70
2018-03-24T18:36:37.137Z,28.30
2018-03-24T18:39:03.026Z,29.23
2018-03-24T18:41:28.868Z,29.50
2018-03-24T18:43:55.135Z,26.40
2018-03-24T18:46:21.121Z,29.17
2018-03-24T18:48:46.985Z,28.20
2018-03-24T18:51:12.930Z,27.40
2018-03-24T18:53:38.810Z,28.10
2018-03-24T18:56:04.687Z,27.00
2018-03-24T18:58:30.695Z,28.07
2018-03-24T19:00:56.565Z,30.37
2018-03-24T19:03:22.523Z,28.23
2018-03-24T19:05:48.514Z,29.00
2018-03-24T19:08:14.506Z,27.63
2018-03-24T19:10:40.447Z,26.30
2018-03-24T19:13:06.471Z,28.90
2018-03-24T19:15:32.305Z,28.97
2018-03-24T19:17:58.155Z,28.90
2018-03-24T19:20:24.062Z,28.67
2018-03-24T19:22:50.068Z,26.60
2018-03-24T19:25:15.973Z,29.70
2018-03-24T19:27:41.900Z,29.53
2018-03-24T19:30:07.756Z,29.93
2018-03-24T19:32:33.633Z,31.10
2018-03-24T19:34:59.637Z,29.63
2018-03-24T19:37:25.515Z,31.70
2018-03-24T19:39:51.747Z,30.43
2018-03-24T19:42:17.653Z,28.53
2018-03-24T19:44:43.609Z,28.20
2018-03-24T19:47:09.552Z,28.60
2018-03-24T19:49:35.484Z,30.57
2018-03-24T19:52:01.636Z,29.23
2018-03-24T19:54:27.506Z,30.07
2018-03-24T19:56:53.453Z,28.47
2018-03-24T19:59:19.410Z,28.67
2018-03-24T20:01:45.270Z,29.87
2018-03-24T20:04:11.225Z,30.33
2018-03-24T20:06:37.070Z,26.93
2018-03-24T20:09:03.269Z,28.43
2018-03-24T20:11:29.243Z,29.50
2018-03-24T20:13:55.089Z,27.77
2018-03-24T20:16:20.948Z,30.67
2018-03-24T20:18:46.841Z,29.43
2018-03-24T20:21:12.890Z,31.30
2018-03-24T20:23:38.846Z,31.63
2018-03-24T20:26:04.776Z,29.60
2018-03-24T20:28:30.641Z,32.00
2018-03-24T20:30:56.506Z,30.90
2018-03-24T20:33:22.667Z,31.60
2018-03-24T20:35:48.649Z,31.33
2018-03-24T20:38:14.513Z,32.20
2018-03-24T20:40:40.412Z,30.60
2018-03-24T20:43:06.281Z,32.17
2018-03-24T20:45:32.128Z,31.17
2018-03-24T20:47:58.217Z,31.33
2018-03-24T20:50:24.085Z,31.90
2018-03-24T20:52:49.946Z,31.57
2018-03-24T20:55:15.838Z,26.73
2018-03-24T20:57:41.795Z,30.47
2018-03-24T21:00:07.875Z,34.27
2018-03-24T21:02:33.789Z,32.90
2018-03-24T21:04:59.685Z,36.27
2018-03-24T21:07:25.537Z,34.07
2018-03-24T21:09:51.437Z,29.90
2018-03-24T21:12:18.373Z,33.70
2018-03-24T21:14:44.285Z,34.80
2018-03-24T21:17:10.197Z,34.17
2018-03-24T21:19:36.124Z,33.67
2018-03-24T21:22:01.990Z,32.97
2018-03-24T21:24:27.998Z,36.50
2018-03-24T21:26:53.926Z,34.27
2018-03-24T21:29:19.753Z,35.80
2018-03-24T21:31:45.662Z,33.90
2018-03-24T21:34:11.535Z,34.93
2018-03-24T21:36:37.484Z,35.07
2018-03-24T21:39:03.401Z,37.03
2018-03-24T21:41:29.261Z,35.80
2018-03-24T21:43:55.134Z,33.83
2018-03-24T21:46:21.195Z,36.70
2018-03-24T21:48:47.174Z,39.30
2018-03-24T21:51:13.051Z,35.00
2018-03-24T21:53:38.972Z,36.90
2018-03-24T21:56:04.841Z,36.50
2018-03-24T21:58:30.689Z,37.90
2018-03-24T22:00:56.668Z,37.67
2018-03-24T22:03:22.552Z,37.17
2018-03-24T22:05:48.409Z,34.60
2018-03-24T22:08:14.306Z,36.70
2018-03-24T22:10:40.165Z,40.67
2018-03-24T22:13:06.111Z,40.73
2018-03-24T22:15:32.156Z,38.30
2018-03-24T22:17:58.030Z,39.30
2018-03-24T22:20:23.922Z,37.93
2018-03-24T22:22:49.863Z,41.13
2018-03-24T22:25:15.837Z,41.03
2018-03-24T22:27:41.707Z,39.17
2018-03-24T22:30:07.602Z,39.47
2018-03-24T22:32:33.469Z,39.70
2018-03-24T22:34:59.320Z,44.13
2018-03-24T22:37:25.318Z,45.27
2018-03-24T22:39:51.191Z,45.17
2018-03-24T22:42:17.060Z,39.07
2018-03-24T22:44:42.958Z,39.70
2018-03-24T22:47:08.813Z,42.90
2018-03-24T22:49:34.752Z,41.97
2018-03-24T22:52:00.663Z,38.30
2018-03-24T22:54:26.507Z,41.03
2018-03-24T22:56:52.365Z,42.63
2018-03-24T22:59:18.278Z,41.27
2018-03-24T23:01:44.220Z,42.80
2018-03-24T23:04:10.077Z,39.30
2018-03-24T23:06:35.997Z,42.80
2018-03-24T23:09:01.886Z,40.80
2018-03-24T23:11:27.740Z,41.17
2018-03-24T23:13:53.738Z,41.87
2018-03-24T23:16:19.622Z,39.97
2018-03-24T23:18:45.595Z,40.10
2018-03-24T23:21:11.490Z,44.07
2018-03-24T23:23:37.337Z,42.10
2018-03-24T23:26:03.292Z,43.00
2018-03-24T23:28:29.205Z,41.73
2018-03-24T23:30:55.173Z,40.27
2018-03-24T23:33:21.027Z,45.00
2018-03-24T23:35:46.936Z,46.37
2018-03-24T23:38:12.865Z,42.47
2018-03-24T23:40:38.752Z,43.67
2018-03-24T23:43:04.665Z,47.87
2018-03-24T23:45:30.556Z,47.50
2018-03-24T23:47:56.413Z,47.23
2018-03-24T23:50:22.397Z,42.80
2018-03-24T23:52:48.252Z,43.73
2018-03-24T23:55:14.096Z,46.50
2018-03-24T23:57:40.017Z,42.57
